Time;durP1;ratioP1;P1;durP2;ratioP2;P2;SDS_P1;SDS_P2;PMS_P1;PMS_P2;Temp;Humidity;BMP_temperature;BMP_pressure;BME280_temperature;BME280_humidity;BME280_pressure;Samples;Min_cycle;Max_cycle;Signal;HPM_P1;HPM_P2
2021/06/01 00:01:26;;;;;;;4.70;3.15;;;;;;;;;;4990695;28;20034;-79
2021/06/01 00:03:52;;;;;;;6.28;3.92;;;;;;;;;;4990228;28;20089;-79
2021/06/01 00:06:18;;;;;;;8.20;3.58;;;;;;;;;;5007199;28;20026;-78
2021/06/01 00:08:43;;;;;;;3.50;2.70;;;;;;;;;;4974522;28;20102;-79
2021/06/01 00:11:09;;;;;;;5.28;3.15;;;;;;;;;;4974394;28;20045;-78
2021/06/01 00:13:35;;;;;;;4.43;2.63;;;;;;;;;;4974638;28;20041;-78
2021/06/01 00:16:01;;;;;;;5.18;3.00;;;;;;;;;;4990591;28;20041;-79
2021/06/01 00:18:27;;;;;;;4.07;3.20;;;;;;;;;;4990824;28;20128;-78
2021/06/01 00:20:52;;;;;;;3.42;2.60;;;;;;;;;;4974535;28;20031;-79
2021/06/01 00:23:18;;;;;;;4.18;2.97;;;;;;;;;;4990029;28;20105;-78
2021/06/01 00:25:43;;;;;;;3.42;2.85;;;;;;;;;;4989980;28;20046;-79
2021/06/01 00:28:09;;;;;;;3.47;2.50;;;;;;;;;;4974444;28;20047;-78
2021/06/01 00:30:34;;;;;;;3.83;2.70;;;;;;;;;;4990250;28;20464;-79
2021/06/01 00:33:00;;;;;;;3.85;2.72;;;;;;;;;;4990467;28;20041;-79
2021/06/01 00:35:25;;;;;;;5.97;2.70;;;;;;;;;;4990612;28;20121;-79
2021/06/01 00:37:51;;;;;;;4.05;2.63;;;;;;;;;;4974478;28;20041;-78
2021/06/01 00:40:16;;;;;;;3.47;3.05;;;;;;;;;;4990145;28;20122;-79
2021/06/01 00:42:42;;;;;;;4.88;2.80;;;;;;;;;;4990674;28;21718;-78
2021/06/01 00:45:08;;;;;;;6.00;2.92;;;;;;;;;;4986789;28;19920;-79
2021/06/01 00:47:33;;;;;;;4.43;2.95;;;;;;;;;;4954591;28;20093;-78
2021/06/01 00:49:59;;;;;;;3.60;2.75;;;;;;;;;;5005815;28;20042;-78
2021/06/01 00:52:24;;;;;;;5.10;3.05;;;;;;;;;;4994058;28;20042;-78
2021/06/01 00:54:49;;;;;;;4.53;2.97;;;;;;;;;;4986056;28;20093;-79
2021/06/01 00:57:15;;;;;;;5.68;2.90;;;;;;;;;;5023219;28;20034;-79
2021/06/01 00:59:40;;;;;;;4.78;2.92;;;;;;;;;;5023050;28;20039;-78
2021/06/01 01:02:06;;;;;;;3.97;2.90;;;;;;;;;;5021021;28;20058;-78
2021/06/01 01:04:32;;;;;;;4.95;3.15;;;;;;;;;;4992939;28;20047;-78
2021/06/01 01:07:18;;;;;;;4.18;2.70;;;;;;;;;;4993551;28;20485;-78
2021/06/01 01:09:44;;;;;;;3.30;2.55;;;;;;;;;;5009186;28;20053;-78
2021/06/01 01:12:15;;;;;;;7.03;3.10;;;;;;;;;;4992934;28;20493;-78
2021/06/01 01:15:00;;;;;;;4.00;3.03;;;;;;;;;;4989738;28;20133;-78
2021/06/01 01:17:35;;;;;;;3.80;3.00;;;;;;;;;;4989889;28;20063;-79
2021/06/01 01:20:16;;;;;;;3.90;2.70;;;;;;;;;;4978146;28;20030;-78
2021/06/01 01:22:43;;;;;;;3.47;2.35;;;;;;;;;;5009808;28;20038;-78
2021/06/01 01:25:34;;;;;;;5.05;3.35;;;;;;;;;;5009092;28;20049;-78
2021/06/01 01:28:05;;;;;;;4.25;3.00;;;;;;;;;;5000653;28;20042;-78
2021/06/01 01:30:45;;;;;;;4.85;2.75;;;;;;;;;;5008362;28;20034;-78
2021/06/01 01:33:20;;;;;;;4.78;2.85;;;;;;;;;;4992844;28;20032;-78
2021/06/01 01:35:47;;;;;;;4.03;2.67;;;;;;;;;;5009668;28;20038;-78
2021/06/01 01:38:13;;;;;;;4.00;2.30;;;;;;;;;;4993654;28;20092;-78
2021/06/01 01:40:38;;;;;;;4.53;2.75;;;;;;;;;;4973037;28;20631;-78
2021/06/01 01:43:07;;;;;;;3.90;2.70;;;;;;;;;;4989729;28;20404;-79
2021/06/01 01:45:36;;;;;;;4.90;3.00;;;;;;;;;;4973244;28;20023;-78
2021/06/01 01:50:57;;;;;;;4.55;2.90;;;;;;;;;;4992940;28;20030;-79
2021/06/01 01:53:22;;;;;;;5.22;3.00;;;;;;;;;;4977133;28;20030;-78
2021/06/01 01:55:49;;;;;;;3.75;2.70;;;;;;;;;;4975326;28;20149;-78
2021/06/01 01:58:15;;;;;;;4.57;3.03;;;;;;;;;;4992907;28;20046;-78
2021/06/01 02:00:42;;;;;;;5.00;2.80;;;;;;;;;;4991181;28;20026;-79
2021/06/01 02:03:08;;;;;;;4.32;2.80;;;;;;;;;;4992472;28;20031;-78
2021/06/01 02:05:33;;;;;;;3.53;2.70;;;;;;;;;;4991240;28;20034;-79
2021/06/01 02:07:58;;;;;;;4.97;2.97;;;;;;;;;;4992717;28;20100;-78
2021/06/01 02:10:24;;;;;;;3.50;3.00;;;;;;;;;;5008741;28;20050;-78
2021/06/01 02:12:49;;;;;;;3.45;2.50;;;;;;;;;;4992538;28;20061;-79
2021/06/01 02:15:15;;;;;;;4.70;2.40;;;;;;;;;;5003888;28;20038;-78
2021/06/01 02:17:40;;;;;;;3.65;2.67;;;;;;;;;;4989078;28;20094;-79
2021/06/01 02:20:06;;;;;;;4.20;2.20;;;;;;;;;;4976249;28;20030;-78
2021/06/01 02:25:17;;;;;;;4.88;2.75;;;;;;;;;;4992984;28;20109;-78
2021/06/01 02:27:59;;;;;;;4.95;2.95;;;;;;;;;;4975391;28;20031;-78
2021/06/01 02:30:33;;;;;;;3.33;2.57;;;;;;;;;;4990623;28;20078;-78
2021/06/01 02:33:00;;;;;;;3.35;2.50;;;;;;;;;;4972424;28;20329;-78
2021/06/01 02:35:28;;;;;;;3.58;2.20;;;;;;;;;;4988873;28;20078;-78
2021/06/01 02:37:54;;;;;;;4.70;2.42;;;;;;;;;;4972279;28;20281;-78
2021/06/01 02:40:21;;;;;;;3.80;2.58;;;;;;;;;;4975144;28;20216;-78
2021/06/01 02:42:46;;;;;;;3.65;2.70;;;;;;;;;;4991622;28;20027;-78
2021/06/01 02:45:14;;;;;;;3.65;2.40;;;;;;;;;;5007659;28;20037;-78
2021/06/01 02:47:40;;;;;;;5.35;2.60;;;;;;;;;;4991551;28;20042;-79
2021/06/01 02:50:08;;;;;;;4.63;2.72;;;;;;;;;;4988094;28;20066;-78
2021/06/01 02:52:33;;;;;;;2.88;2.42;;;;;;;;;;4971403;28;20027;-79
2021/06/01 02:55:05;;;;;;;2.90;2.22;;;;;;;;;;4971301;28;20034;-78
2021/06/01 02:57:31;;;;;;;3.72;2.53;;;;;;;;;;4971744;28;20031;-78
2021/06/01 02:59:57;;;;;;;3.53;2.40;;;;;;;;;;5004033;28;20031;-78
2021/06/01 03:02:26;;;;;;;2.97;2.38;;;;;;;;;;5004166;28;20042;-78
2021/06/01 03:04:52;;;;;;;3.08;2.28;;;;;;;;;;4996627;28;20026;-79
2021/06/01 03:07:17;;;;;;;3.92;2.50;;;;;;;;;;5006990;28;20378;-79
2021/06/01 03:09:43;;;;;;;3.33;2.22;;;;;;;;;;4974994;28;20045;-78
2021/06/01 03:12:19;;;;;;;3.30;2.17;;;;;;;;;;4990821;28;20163;-79
2021/06/01 03:14:46;;;;;;;4.40;2.42;;;;;;;;;;4992198;28;20023;-78
2021/06/01 03:17:11;;;;;;;3.55;2.25;;;;;;;;;;4975170;28;20040;-78
2021/06/01 03:19:37;;;;;;;4.55;2.50;;;;;;;;;;4991095;28;20030;-78
2021/06/01 03:22:03;;;;;;;4.75;2.38;;;;;;;;;;4985862;28;20042;-79
2021/06/01 03:24:28;;;;;;;2.92;2.00;;;;;;;;;;5007660;28;20023;-78
2021/06/01 03:26:54;;;;;;;4.38;2.30;;;;;;;;;;4996907;28;20046;-78
2021/06/01 03:29:19;;;;;;;4.38;2.30;;;;;;;;;;5010525;28;20108;-79
2021/06/01 03:31:45;;;;;;;5.38;2.38;;;;;;;;;;4978405;28;20033;-78
2021/06/01 03:34:10;;;;;;;4.05;2.67;;;;;;;;;;4995632;28;20038;-79
2021/06/01 03:36:35;;;;;;;3.55;2.38;;;;;;;;;;4990726;28;20489;-78
2021/06/01 03:39:04;;;;;;;4.05;2.70;;;;;;;;;;4975096;28;20046;-78
2021/06/01 03:41:29;;;;;;;3.20;2.42;;;;;;;;;;4991346;28;20041;-79
2021/06/01 03:43:55;;;;;;;4.45;2.38;;;;;;;;;;4990348;28;20365;-79
2021/06/01 03:46:20;;;;;;;3.42;1.92;;;;;;;;;;4990862;28;20031;-78
2021/06/01 03:48:46;;;;;;;3.20;2.08;;;;;;;;;;4987612;28;20055;-79
2021/06/01 03:51:11;;;;;;;2.60;1.80;;;;;;;;;;4985935;28;20031;-78
2021/06/01 03:53:37;;;;;;;3.20;2.35;;;;;;;;;;4987330;28;20050;-79
2021/06/01 03:56:02;;;;;;;2.40;1.92;;;;;;;;;;5005167;28;20081;-78
2021/06/01 03:58:28;;;;;;;3.33;2.25;;;;;;;;;;4990967;28;20026;-78
2021/06/01 04:00:53;;;;;;;3.58;2.05;;;;;;;;;;4990186;28;20046;-78
2021/06/01 04:03:19;;;;;;;3.92;2.42;;;;;;;;;;4990473;28;20030;-78
2021/06/01 04:05:44;;;;;;;3.75;2.55;;;;;;;;;;5006587;28;20049;-79
2021/06/01 04:08:10;;;;;;;2.95;1.85;;;;;;;;;;4974464;28;20042;-79
2021/06/01 04:10:35;;;;;;;2.97;2.17;;;;;;;;;;5003273;28;20034;-79
2021/06/01 04:13:01;;;;;;;2.97;2.10;;;;;;;;;;5020269;28;20413;-79
2021/06/01 04:15:26;;;;;;;3.67;2.28;;;;;;;;;;5006046;28;20030;-78
2021/06/01 04:17:52;;;;;;;2.72;2.20;;;;;;;;;;5006084;28;20097;-78
2021/06/01 04:20:17;;;;;;;4.43;2.50;;;;;;;;;;5006243;28;20034;-78
2021/06/01 04:22:43;;;;;;;3.30;1.75;;;;;;;;;;4990316;28;20038;-78
2021/06/01 04:25:09;;;;;;;2.95;2.10;;;;;;;;;;5010295;28;20040;-79
2021/06/01 04:27:35;;;;;;;3.92;2.10;;;;;;;;;;5021053;28;20413;-78
2021/06/01 04:30:00;;;;;;;2.75;1.95;;;;;;;;;;5023706;28;20066;-78
2021/06/01 04:32:26;;;;;;;4.40;1.73;;;;;;;;;;5023669;28;20027;-79
2021/06/01 04:34:52;;;;;;;2.65;1.73;;;;;;;;;;5009575;28;20121;-78
2021/06/01 04:37:17;;;;;;;2.88;1.75;;;;;;;;;;4980316;28;20026;-78
2021/06/01 04:39:43;;;;;;;3.15;2.33;;;;;;;;;;5026583;28;20049;-79
2021/06/01 04:42:08;;;;;;;3.00;1.88;;;;;;;;;;5026317;28;20105;-79
2021/06/01 04:44:34;;;;;;;4.00;2.30;;;;;;;;;;4993585;28;20092;-79
2021/06/01 04:46:59;;;;;;;3.30;1.88;;;;;;;;;;5010302;28;20093;-78
2021/06/01 04:49:42;;;;;;;3.22;2.10;;;;;;;;;;5009687;28;20065;-79
2021/06/01 04:52:11;;;;;;;3.40;1.80;;;;;;;;;;4994306;28;20440;-79
2021/06/01 04:54:38;;;;;;;3.15;2.17;;;;;;;;;;4977167;28;20054;-79
2021/06/01 04:57:05;;;;;;;3.22;2.00;;;;;;;;;;4993275;28;20120;-77
2021/06/01 04:59:30;;;;;;;3.72;1.85;;;;;;;;;;5007446;28;20068;-77
2021/06/01 05:01:56;;;;;;;4.20;2.42;;;;;;;;;;4991250;28;20473;-77
2021/06/01 05:04:22;;;;;;;3.40;1.83;;;;;;;;;;4994491;28;20030;-76
2021/06/01 05:06:47;;;;;;;2.85;1.83;;;;;;;;;;5001238;28;20023;-76
2021/06/01 05:09:12;;;;;;;3.92;1.92;;;;;;;;;;5015391;28;20034;-78
2021/06/01 05:11:38;;;;;;;3.47;2.00;;;;;;;;;;5012892;28;20041;-76
2021/06/01 05:14:06;;;;;;;3.47;1.80;;;;;;;;;;5009180;28;20523;-77
2021/06/01 05:16:33;;;;;;;3.58;2.03;;;;;;;;;;4993559;28;20070;-77
2021/06/01 05:18:59;;;;;;;3.92;2.15;;;;;;;;;;5010196;28;20049;-76
2021/06/01 05:21:25;;;;;;;5.13;2.40;;;;;;;;;;4976807;28;20412;-77
2021/06/01 05:23:50;;;;;;;4.03;1.95;;;;;;;;;;4971125;28;20026;-77
2021/06/01 05:26:16;;;;;;;3.17;1.95;;;;;;;;;;4995690;28;20077;-77
2021/06/01 05:28:41;;;;;;;2.78;1.80;;;;;;;;;;5012036;28;20042;-77
2021/06/01 05:34:06;;;;;;;5.70;2.15;;;;;;;;;;4981138;28;20534;-77
2021/06/01 05:36:32;;;;;;;4.15;2.30;;;;;;;;;;5001228;28;20026;-77
2021/06/01 05:38:57;;;;;;;3.72;2.10;;;;;;;;;;4986630;28;20484;-77
2021/06/01 05:41:23;;;;;;;4.65;2.10;;;;;;;;;;4998906;28;20030;-77
2021/06/01 05:43:48;;;;;;;3.53;2.15;;;;;;;;;;5011220;28;20052;-77
2021/06/01 05:46:13;;;;;;;4.03;2.05;;;;;;;;;;5012797;28;20081;-77
2021/06/01 05:48:39;;;;;;;4.75;2.00;;;;;;;;;;5006678;28;20039;-77
2021/06/01 05:51:05;;;;;;;4.40;2.50;;;;;;;;;;4981835;28;20081;-77
2021/06/01 05:53:31;;;;;;;5.30;2.95;;;;;;;;;;4982869;28;20023;-77
2021/06/01 05:55:56;;;;;;;3.53;2.38;;;;;;;;;;5007359;28;20043;-77
2021/06/01 05:58:22;;;;;;;2.72;2.00;;;;;;;;;;5006013;28;20137;-77
2021/06/01 06:00:47;;;;;;;4.45;2.03;;;;;;;;;;4959241;28;20034;-77
2021/06/01 06:03:14;;;;;;;8.85;2.50;;;;;;;;;;4989478;28;20125;-77
2021/06/01 06:05:40;;;;;;;3.28;1.98;;;;;;;;;;5003949;28;20073;-77
2021/06/01 06:08:07;;;;;;;13.43;9.90;;;;;;;;;;4992483;28;20062;-77
2021/06/01 06:10:32;;;;;;;14.48;9.88;;;;;;;;;;5008686;28;20026;-77
2021/06/01 06:12:58;;;;;;;11.43;4.57;;;;;;;;;;4992283;28;20088;-77
2021/06/01 06:15:23;;;;;;;4.22;2.60;;;;;;;;;;4988701;28;20240;-77
2021/06/01 06:17:56;;;;;;;5.72;3.13;;;;;;;;;;5022327;28;20441;-77
2021/06/01 06:20:22;;;;;;;5.38;3.05;;;;;;;;;;5008114;28;20393;-77
2021/06/01 06:22:47;;;;;;;6.45;2.60;;;;;;;;;;4991869;28;20035;-77
2021/06/01 06:25:13;;;;;;;4.03;2.53;;;;;;;;;;5008183;28;20476;-77
2021/06/01 06:27:39;;;;;;;3.45;2.33;;;;;;;;;;5001531;28;20057;-77
2021/06/01 06:30:05;;;;;;;7.00;3.15;;;;;;;;;;4992104;28;20052;-77
2021/06/01 06:32:31;;;;;;;6.63;2.65;;;;;;;;;;5008733;28;20035;-77
2021/06/01 06:34:56;;;;;;;8.50;2.83;;;;;;;;;;4991698;28;20057;-77
2021/06/01 06:37:22;;;;;;;4.55;2.75;;;;;;;;;;4988240;28;20055;-77
2021/06/01 06:39:48;;;;;;;5.00;2.60;;;;;;;;;;4988833;28;20362;-77
2021/06/01 06:42:14;;;;;;;5.68;2.63;;;;;;;;;;4972941;28;20030;-80
2021/06/01 06:44:42;;;;;;;7.28;2.83;;;;;;;;;;4988434;28;20561;-78
2021/06/01 06:49:37;;;;;;;11.50;3.78;;;;;;;;;;5000999;28;20091;-77
2021/06/01 06:52:03;;;;;;;5.70;3.30;;;;;;;;;;4996938;28;20058;-78
2021/06/01 06:54:29;;;;;;;8.50;3.63;;;;;;;;;;5011102;28;20104;-78
2021/06/01 06:56:55;;;;;;;6.95;3.00;;;;;;;;;;4992964;28;20191;-78
2021/06/01 06:59:21;;;;;;;10.10;3.10;;;;;;;;;;4991336;28;20416;-77
2021/06/01 07:01:47;;;;;;;8.35;3.40;;;;;;;;;;4995507;28;20109;-77
2021/06/01 07:04:26;;;;;;;6.78;2.72;;;;;;;;;;4990642;28;20077;-77
2021/06/01 07:06:53;;;;;;;5.68;2.50;;;;;;;;;;4974604;28;20096;-77
2021/06/01 07:09:20;;;;;;;5.75;2.60;;;;;;;;;;4988209;28;20022;-77
2021/06/01 07:11:45;;;;;;;6.22;2.55;;;;;;;;;;4974154;28;20041;-77
2021/06/01 07:14:24;;;;;;;6.18;2.92;;;;;;;;;;4990785;28;20026;-77
2021/06/01 07:16:49;;;;;;;4.18;2.30;;;;;;;;;;4976271;28;20400;-77
2021/06/01 07:19:16;;;;;;;6.53;2.10;;;;;;;;;;4991195;28;20093;-77
2021/06/01 07:21:42;;;;;;;6.65;2.70;;;;;;;;;;4977077;28;20057;-77
2021/06/01 07:24:07;;;;;;;7.75;2.53;;;;;;;;;;4972020;28;20769;-77
2021/06/01 07:26:33;;;;;;;5.57;2.45;;;;;;;;;;4989365;28;20181;-77
2021/06/01 07:28:59;;;;;;;5.80;2.63;;;;;;;;;;4998815;28;20049;-76
2021/06/01 07:31:24;;;;;;;4.47;2.15;;;;;;;;;;4991143;28;20046;-76
2021/06/01 07:33:50;;;;;;;4.65;2.33;;;;;;;;;;4989005;28;20050;-77
2021/06/01 07:36:15;;;;;;;4.10;1.48;;;;;;;;;;4996601;28;20038;-76
2021/06/01 07:38:41;;;;;;;4.53;2.00;;;;;;;;;;5009948;28;20031;-76
2021/06/01 07:41:06;;;;;;;4.43;2.28;;;;;;;;;;5023998;28;20061;-77
2021/06/01 07:43:32;;;;;;;3.25;1.80;;;;;;;;;;5023331;28;20041;-76
2021/06/01 07:45:57;;;;;;;3.58;1.23;;;;;;;;;;5023535;28;20038;-76
2021/06/01 07:48:23;;;;;;;3.10;1.80;;;;;;;;;;5011900;28;20144;-76
2021/06/01 07:50:50;;;;;;;3.47;1.25;;;;;;;;;;5007050;28;20074;-76
2021/06/01 07:53:15;;;;;;;4.00;1.30;;;;;;;;;;5022902;28;20088;-77
2021/06/01 07:55:40;;;;;;;5.40;1.40;;;;;;;;;;5023400;28;20038;-76
2021/06/01 07:58:06;;;;;;;2.75;1.10;;;;;;;;;;5024169;28;20026;-77
2021/06/01 08:00:32;;;;;;;6.28;1.77;;;;;;;;;;5018252;28;20627;-76
2021/06/01 08:02:58;;;;;;;4.63;1.80;;;;;;;;;;5010538;28;20058;-77
2021/06/01 08:05:23;;;;;;;9.13;2.38;;;;;;;;;;5026205;28;20046;-76
2021/06/01 08:07:49;;;;;;;7.85;2.33;;;;;;;;;;5010854;28;20054;-76
2021/06/01 08:10:21;;;;;;;7.18;3.35;;;;;;;;;;4978153;28;20087;-78
2021/06/01 08:12:47;;;;;;;4.28;1.95;;;;;;;;;;5010279;28;20057;-81
2021/06/01 08:15:13;;;;;;;13.13;2.65;;;;;;;;;;4994027;28;20038;-79
2021/06/01 08:17:39;;;;;;;9.43;2.00;;;;;;;;;;4993353;28;20018;-78
2021/06/01 08:20:41;;;;;;;7.50;3.20;;;;;;;;;;4997347;28;20037;-79
2021/06/01 08:22:56;;;;;;;6.35;2.15;;;;;;;;;;4992441;28;20500;-80
2021/06/01 08:25:22;;;;;;;4.88;1.92;;;;;;;;;;4994285;28;20031;-80
2021/06/01 08:27:48;;;;;;;7.88;1.98;;;;;;;;;;4997118;28;20120;-76
2021/06/01 08:30:14;;;;;;;6.78;2.20;;;;;;;;;;5030481;28;20056;-74
2021/06/01 08:32:39;;;;;;;5.90;2.17;;;;;;;;;;4981119;28;20034;-74
2021/06/01 08:35:05;;;;;;;6.25;2.20;;;;;;;;;;5013748;28;20042;-73
2021/06/01 08:37:31;;;;;;;3.55;1.58;;;;;;;;;;5013692;28;20040;-73
2021/06/01 08:39:57;;;;;;;7.22;2.15;;;;;;;;;;5030128;28;20033;-75
2021/06/01 08:42:23;;;;;;;4.88;2.22;;;;;;;;;;5013863;28;20030;-75
2021/06/01 08:44:49;;;;;;;3.22;1.88;;;;;;;;;;4993570;28;20117;-76
2021/06/01 08:47:17;;;;;;;3.22;1.40;;;;;;;;;;4993797;28;20516;-76
2021/06/01 08:49:43;;;;;;;2.50;1.40;;;;;;;;;;5010057;28;20030;-76
2021/06/01 08:52:08;;;;;;;3.17;1.35;;;;;;;;;;4993887;28;20035;-78
2021/06/01 08:54:34;;;;;;;3.17;1.17;;;;;;;;;;4977739;28;20193;-80
2021/06/01 08:56:59;;;;;;;1.75;1.25;;;;;;;;;;4977254;28;20049;-78
2021/06/01 08:59:25;;;;;;;6.38;1.67;;;;;;;;;;5006544;28;20446;-77
2021/06/01 09:01:52;;;;;;;2.97;1.38;;;;;;;;;;5004931;28;20039;-76
2021/06/01 09:04:18;;;;;;;3.25;1.20;;;;;;;;;;4993126;28;20027;-76
2021/06/01 09:07:01;;;;;;;2.75;1.42;;;;;;;;;;5009385;28;20030;-76
2021/06/01 09:22:51;;;;;;;5.38;2.42;;;;;;;;;;5020107;28;20026;-76
2021/06/01 09:25:35;;;;;;;7.00;3.33;;;;;;;;;;4992129;28;20049;-77
2021/06/01 09:28:02;;;;;;;7.82;4.15;;;;;;;;;;4994006;28;20038;-76
2021/06/01 09:30:43;;;;;;;11.02;5.30;;;;;;;;;;4992875;28;20049;-76
2021/06/01 09:33:18;;;;;;;5.90;3.28;;;;;;;;;;4992899;28;20042;-76
2021/06/01 09:35:51;;;;;;;4.18;2.47;;;;;;;;;;5009104;28;20081;-75
2021/06/01 09:38:24;;;;;;;8.95;2.55;;;;;;;;;;5025551;28;20034;-75
2021/06/01 09:41:02;;;;;;;;;;;;;;;;;;5022162;28;20064;-76
2021/06/01 09:43:28;;;;;;;5.30;2.45;;;;;;;;;;4993897;28;19918;-76
2021/06/01 09:45:53;;;;;;;5.57;2.45;;;;;;;;;;4992330;28;20536;-76
2021/06/01 09:48:20;;;;;;;7.82;2.42;;;;;;;;;;5009138;28;20038;-77
2021/06/01 09:53:18;;;;;;;3.53;1.40;;;;;;;;;;4987786;28;20370;-75
2021/06/01 09:55:47;;;;;;;3.63;1.27;;;;;;;;;;5004227;28;20045;-75
2021/06/01 09:58:15;;;;;;;3.67;1.20;;;;;;;;;;5012223;28;20030;-75
2021/06/01 10:00:41;;;;;;;1.92;1.25;;;;;;;;;;4992875;28;20544;-75
2021/06/01 10:03:15;;;;;;;3.92;1.10;;;;;;;;;;5004404;28;20106;-76
2021/06/01 10:05:40;;;;;;;3.05;1.42;;;;;;;;;;4988911;28;20035;-75
2021/06/01 10:08:19;;;;;;;11.63;6.97;;;;;;;;;;5006179;28;20045;-75
2021/06/01 10:10:49;;;;;;;11.88;9.52;;;;;;;;;;4994325;28;20132;-74
2021/06/01 10:13:15;;;;;;;9.10;5.50;;;;;;;;;;5001085;28;20080;-74
2021/06/01 10:15:40;;;;;;;8.63;5.93;;;;;;;;;;5011561;28;20108;-74
2021/06/01 10:18:07;;;;;;;6.22;3.85;;;;;;;;;;4982546;28;20030;-75
2021/06/01 10:20:36;;;;;;;5.25;2.20;;;;;;;;;;4992053;28;20125;-74
2021/06/01 10:23:02;;;;;;;5.13;2.40;;;;;;;;;;4989780;28;20102;-75
2021/06/01 10:25:28;;;;;;;2.85;1.92;;;;;;;;;;4990138;28;20046;-74
2021/06/01 10:27:58;;;;;;;4.20;1.38;;;;;;;;;;4991444;28;20042;-74
2021/06/01 10:30:24;;;;;;;1.90;1.20;;;;;;;;;;4990532;28;20043;-74
2021/06/01 10:32:52;;;;;;;3.67;1.73;;;;;;;;;;5007963;28;20041;-75
2021/06/01 10:35:19;;;;;;;3.00;1.20;;;;;;;;;;5023175;28;20052;-75
2021/06/01 10:48:45;;;;;;;2.10;1.20;;;;;;;;;;4979398;28;20026;-75
2021/06/01 10:51:27;;;;;;;3.17;1.45;;;;;;;;;;4991577;28;20038;-75
2021/06/01 10:53:52;;;;;;;2.67;1.58;;;;;;;;;;5005054;28;20026;-76
2021/06/01 10:56:18;;;;;;;1.88;1.02;;;;;;;;;;5022992;28;20455;-74
2021/06/01 10:58:46;;;;;;;1.30;0.90;;;;;;;;;;4991230;28;20030;-75
2021/06/01 11:04:05;;;;;;;2.08;1.33;;;;;;;;;;4989980;28;20097;-75
2021/06/01 11:06:50;;;;;;;4.45;1.70;;;;;;;;;;4984670;28;20046;-75
2021/06/01 11:09:31;;;;;;;3.97;1.10;;;;;;;;;;4994337;28;20030;-75
2021/06/01 11:11:57;;;;;;;2.97;1.00;;;;;;;;;;5006911;28;20046;-75
2021/06/01 11:14:27;;;;;;;4.10;1.23;;;;;;;;;;4990516;28;20116;-74
2021/06/01 11:17:00;;;;;;;2.78;1.60;;;;;;;;;;4975233;28;20088;-75
2021/06/01 11:19:29;;;;;;;4.63;2.00;;;;;;;;;;4991248;28;20114;-75
2021/06/01 11:22:01;;;;;;;6.13;2.65;;;;;;;;;;5003112;28;20427;-74
2021/06/01 11:35:23;;;;;;;4.47;1.48;;;;;;;;;;4985101;28;20505;-75
2021/06/01 11:41:20;;;;;;;1.98;1.20;;;;;;;;;;4999888;28;20118;-75
2021/06/01 11:43:15;;;;;;;2.58;1.23;;;;;;;;;;5003047;28;20065;-75
2021/06/01 11:46:06;;;;;;;2.35;1.40;;;;;;;;;;4990450;28;20034;-75
2021/06/01 11:51:21;;;;;;;2.30;1.33;;;;;;;;;;4975566;28;20058;-75
2021/06/01 11:54:06;;;;;;;2.88;1.05;;;;;;;;;;4983698;28;20088;-75
2021/06/01 12:04:38;;;;;;;2.53;1.23;;;;;;;;;;5005818;28;20031;-76
2021/06/01 12:18:22;;;;;;;3.45;1.35;;;;;;;;;;4977206;28;20085;-76
2021/06/01 12:20:48;;;;;;;2.10;1.40;;;;;;;;;;4990631;28;20129;-75
2021/06/01 12:23:38;;;;;;;2.03;1.08;;;;;;;;;;4983523;28;20812;-74
2021/06/01 12:26:13;;;;;;;2.65;1.27;;;;;;;;;;4988082;28;20497;-75
2021/06/01 12:31:58;;;;;;;2.70;1.10;;;;;;;;;;4991550;28;20104;-76
2021/06/01 12:34:38;;;;;;;1.75;1.00;;;;;;;;;;5016919;28;20041;-75
2021/06/01 12:45:42;;;;;;;2.22;1.38;;;;;;;;;;4973196;28;20063;-75
2021/06/01 13:08:35;;;;;;;1.73;1.00;;;;;;;;;;5005617;28;20030;-75
2021/06/01 13:19:27;;;;;;;2.70;1.30;;;;;;;;;;4994035;28;20038;-75
2021/06/01 13:22:16;;;;;;;2.70;1.50;;;;;;;;;;5009149;28;20053;-75
2021/06/01 13:30:33;;;;;;;2.53;1.30;;;;;;;;;;4995391;28;20043;-75
2021/06/01 13:38:43;;;;;;;2.60;1.27;;;;;;;;;;4993252;28;20073;-75
2021/06/01 13:46:47;;;;;;;2.55;1.08;;;;;;;;;;4979938;28;20485;-75
2021/06/01 13:56:59;;;;;;;6.80;1.48;;;;;;;;;;5000110;28;20035;-75
2021/06/01 14:38:08;;;;;;;2.55;1.30;;;;;;;;;;5005924;28;20050;-75
2021/06/01 15:10:58;;;;;;;1.88;1.05;;;;;;;;;;4990571;28;20121;-75
2021/06/01 15:49:57;;;;;;;3.13;1.40;;;;;;;;;;5007119;28;20034;-74
2021/06/01 16:43:35;;;;;;;2.58;1.15;;;;;;;;;;4980616;28;20073;-75
2021/06/01 17:05:36;;;;;;;3.65;1.45;;;;;;;;;;4988763;28;20030;-75
2021/06/01 17:13:28;;;;;;;2.35;1.33;;;;;;;;;;4993128;28;20113;-75
2021/06/01 17:15:55;;;;;;;4.70;1.55;;;;;;;;;;4993675;28;20116;-75
2021/06/01 17:18:36;;;;;;;3.80;1.48;;;;;;;;;;5008676;28;20070;-75
2021/06/01 17:34:45;;;;;;;3.45;1.40;;;;;;;;;;5007787;28;20539;-75
2021/06/01 17:37:11;;;;;;;4.75;1.60;;;;;;;;;;4993613;28;20030;-75
2021/06/01 17:39:36;;;;;;;3.65;2.63;;;;;;;;;;5009657;28;20034;-76
2021/06/01 17:42:03;;;;;;;3.58;2.40;;;;;;;;;;5009591;28;20042;-76
2021/06/01 17:44:32;;;;;;;5.25;2.80;;;;;;;;;;4976138;28;20049;-75
2021/06/01 17:47:01;;;;;;;5.00;2.47;;;;;;;;;;4993522;28;20117;-76
2021/06/01 17:49:30;;;;;;;3.63;2.05;;;;;;;;;;4976634;28;20041;-76
2021/06/01 17:51:58;;;;;;;3.65;1.40;;;;;;;;;;4989034;28;20034;-76
2021/06/01 17:54:31;;;;;;;2.80;1.80;;;;;;;;;;5006072;28;20046;-75
2021/06/01 17:56:57;;;;;;;2.47;1.40;;;;;;;;;;4992507;28;20034;-76
2021/06/01 17:59:23;;;;;;;3.25;1.52;;;;;;;;;;4976660;28;20038;-76
2021/06/01 18:01:49;;;;;;;3.17;1.60;;;;;;;;;;5026013;28;20052;-76
2021/06/01 18:04:15;;;;;;;3.75;1.90;;;;;;;;;;5008914;28;20481;-75
2021/06/01 18:07:17;;;;;;;3.53;1.85;;;;;;;;;;5025643;28;20035;-76
2021/06/01 18:13:07;;;;;;;2.55;1.40;;;;;;;;;;4963627;28;20102;-75
2021/06/01 19:24:31;;;;;;;4.95;1.45;;;;;;;;;;4975407;28;20034;-77
2021/06/01 19:51:31;;;;;;;2.88;1.70;;;;;;;;;;4971161;28;20382;-76
2021/06/01 19:53:57;;;;;;;6.35;2.25;;;;;;;;;;4976333;28;20050;-76
2021/06/01 19:56:22;;;;;;;4.07;2.10;;;;;;;;;;4975309;28;20054;-76
2021/06/01 19:58:48;;;;;;;2.97;2.22;;;;;;;;;;5003336;28;20038;-77
2021/06/01 20:01:13;;;;;;;3.38;2.05;;;;;;;;;;5007301;28;20397;-77
2021/06/01 20:03:39;;;;;;;3.72;2.20;;;;;;;;;;5010786;28;20393;-77
2021/06/01 20:06:08;;;;;;;6.55;2.53;;;;;;;;;;5019816;28;20043;-76
2021/06/01 20:08:33;;;;;;;5.53;2.67;;;;;;;;;;5007428;28;20563;-77
2021/06/01 20:10:59;;;;;;;4.43;2.30;;;;;;;;;;4993182;28;20031;-76
2021/06/01 20:13:24;;;;;;;4.22;2.25;;;;;;;;;;4994465;28;20060;-76
2021/06/01 20:15:50;;;;;;;4.70;1.75;;;;;;;;;;5010779;28;20042;-76
2021/06/01 20:18:15;;;;;;;4.15;2.58;;;;;;;;;;4994693;28;20039;-77
2021/06/01 20:20:44;;;;;;;5.38;2.35;;;;;;;;;;4994662;28;20038;-76
2021/06/01 20:23:10;;;;;;;3.95;2.03;;;;;;;;;;4994384;28;20041;-77
2021/06/01 20:25:36;;;;;;;5.22;2.97;;;;;;;;;;4978011;28;20439;-76
2021/06/01 20:28:04;;;;;;;5.35;2.28;;;;;;;;;;4997974;28;20038;-76
2021/06/01 20:30:47;;;;;;;4.55;2.70;;;;;;;;;;4983412;28;20059;-76
2021/06/01 20:33:13;;;;;;;3.20;2.08;;;;;;;;;;4993942;28;20098;-76
2021/06/01 20:35:51;;;;;;;3.17;2.40;;;;;;;;;;5026904;28;20129;-76
2021/06/01 20:38:18;;;;;;;2.92;2.22;;;;;;;;;;5009273;28;20058;-76
2021/06/01 20:40:44;;;;;;;4.93;2.60;;;;;;;;;;5010390;28;20038;-76
2021/06/01 20:43:09;;;;;;;4.05;2.38;;;;;;;;;;5010687;28;20034;-76
2021/06/01 20:45:37;;;;;;;4.45;2.10;;;;;;;;;;5010356;28;20038;-76
2021/06/01 20:48:04;;;;;;;5.60;3.80;;;;;;;;;;4994070;28;20037;-77
2021/06/01 20:50:30;;;;;;;7.78;4.13;;;;;;;;;;4994306;28;20039;-77
2021/06/01 20:52:56;;;;;;;7.32;3.72;;;;;;;;;;5009597;28;20400;-77
2021/06/01 20:55:22;;;;;;;6.30;3.97;;;;;;;;;;5009845;28;20022;-77
2021/06/01 20:57:51;;;;;;;4.60;3.40;;;;;;;;;;4993914;28;20511;-76
2021/06/01 21:00:17;;;;;;;7.10;3.40;;;;;;;;;;4977542;28;20066;-76
2021/06/01 21:02:43;;;;;;;4.97;3.35;;;;;;;;;;4977653;28;20061;-77
2021/06/01 21:05:10;;;;;;;7.10;4.05;;;;;;;;;;4993636;28;20037;-77
2021/06/01 21:07:35;;;;;;;5.43;3.67;;;;;;;;;;4977858;28;20077;-77
2021/06/01 21:10:01;;;;;;;9.05;4.43;;;;;;;;;;4993324;28;20048;-77
2021/06/01 21:12:28;;;;;;;8.50;3.13;;;;;;;;;;4993788;28;20115;-76
2021/06/01 21:14:53;;;;;;;5.38;3.08;;;;;;;;;;4993395;28;20042;-76
2021/06/01 21:17:21;;;;;;;6.10;3.22;;;;;;;;;;4993878;28;20113;-77
2021/06/01 21:19:49;;;;;;;4.47;2.97;;;;;;;;;;4993107;28;20105;-76
2021/06/01 21:22:15;;;;;;;7.85;3.60;;;;;;;;;;4993470;28;20484;-77
2021/06/01 21:24:41;;;;;;;6.00;3.50;;;;;;;;;;4973340;28;20047;-76
2021/06/01 21:27:07;;;;;;;16.70;14.25;;;;;;;;;;5009622;28;20103;-76
2021/06/01 21:29:36;;;;;;;16.70;12.40;;;;;;;;;;5009075;28;20030;-77
2021/06/01 21:32:26;;;;;;;15.52;13.70;;;;;;;;;;5008813;28;20115;-75
2021/06/01 21:34:51;;;;;;;19.00;13.88;;;;;;;;;;4989966;28;20108;-77
2021/06/01 21:37:18;;;;;;;15.93;13.90;;;;;;;;;;4991812;28;20436;-77
2021/06/01 21:39:44;;;;;;;16.40;13.05;;;;;;;;;;4992650;28;20067;-76
2021/06/01 21:42:09;;;;;;;16.58;13.13;;;;;;;;;;4976728;28;20023;-76
2021/06/01 21:44:39;;;;;;;17.98;13.15;;;;;;;;;;5009070;28;20472;-76
2021/06/01 21:47:05;;;;;;;14.88;12.10;;;;;;;;;;4976779;28;20037;-76
2021/06/01 21:49:35;;;;;;;14.73;10.98;;;;;;;;;;4984023;28;20034;-76
2021/06/01 21:52:00;;;;;;;19.13;11.07;;;;;;;;;;4986787;28;20035;-77
2021/06/01 21:54:26;;;;;;;13.13;10.15;;;;;;;;;;4984520;28;20515;-77
2021/06/01 21:56:52;;;;;;;12.20;9.77;;;;;;;;;;4976250;28;20100;-76
2021/06/01 21:59:21;;;;;;;12.75;9.82;;;;;;;;;;5000670;28;20038;-77
2021/06/01 22:01:48;;;;;;;11.82;9.63;;;;;;;;;;4959698;28;20030;-77